createdAt,value
2022-10-31T00:00:01.122Z,27.58
2022-10-31T00:02:51.269Z,23.45
2022-10-31T00:05:43.533Z,23.52
2022-10-31T00:08:32.229Z,22.23
2022-10-31T00:11:20.857Z,23.23
2022-10-31T00:14:09.640Z,22.40
2022-10-31T00:16:58.384Z,28.65
2022-10-31T00:19:48.482Z,21.50
2022-10-31T00:22:37.245Z,26.45
2022-10-31T00:25:26.018Z,26.60
2022-10-31T00:28:14.655Z,26.83
2022-10-31T00:31:05.495Z,22.55
2022-10-31T00:33:54.422Z,22.67
2022-10-31T00:36:44.503Z,24.70
2022-10-31T00:39:35.728Z,26.65
2022-10-31T00:42:24.651Z,24.20
2022-10-31T00:45:13.731Z,27.23
2022-10-31T00:48:02.611Z,26.52
2022-10-31T00:50:51.753Z,24.90
2022-10-31T00:53:41.883Z,25.30
2022-10-31T00:56:30.702Z,23.27
2022-10-31T00:59:20.184Z,23.30
2022-10-31T01:02:09.126Z,24.95
2022-10-31T01:04:57.943Z,23.75
2022-10-31T01:07:46.618Z,21.05
2022-10-31T01:10:37.022Z,21.08
2022-10-31T01:13:25.945Z,22.02
2022-10-31T01:16:16.655Z,23.27
2022-10-31T01:19:05.466Z,21.25
2022-10-31T01:21:56.498Z,21.98
2022-10-31T01:24:45.231Z,24.02
2022-10-31T01:27:35.514Z,20.63
2022-10-31T01:30:24.581Z,21.23
2022-10-31T01:33:13.445Z,25.50
2022-10-31T01:36:02.197Z,22.33
2022-10-31T01:38:51.778Z,22.63
2022-10-31T01:41:43.374Z,23.42
2022-10-31T01:45:03.698Z,23.40
2022-10-31T01:47:52.574Z,24.15
2022-10-31T01:50:42.097Z,22.27
2022-10-31T01:53:30.825Z,22.20
2022-10-31T01:56:20.809Z,23.40
2022-10-31T01:59:14.769Z,24.63
2022-10-31T02:02:05.144Z,23.65
2022-10-31T02:04:55.462Z,22.38
2022-10-31T02:07:52.231Z,21.42
2022-10-31T02:10:42.360Z,26.65
2022-10-31T02:13:31.739Z,25.67
2022-10-31T02:16:20.454Z,29.60
2022-10-31T02:19:14.649Z,28.98
2022-10-31T02:22:11.701Z,29.48
2022-10-31T02:25:10.712Z,29.67
2022-10-31T02:28:23.639Z,29.00
2022-10-31T02:31:28.755Z,27.40
2022-10-31T02:34:23.568Z,27.30
2022-10-31T02:37:16.347Z,29.05
2022-10-31T02:40:12.746Z,31.83
2022-10-31T02:43:26.121Z,29.60
2022-10-31T02:46:21.515Z,31.00
2022-10-31T02:49:15.890Z,31.88
2022-10-31T02:52:04.764Z,32.90
2022-10-31T02:54:53.907Z,31.42
2022-10-31T02:57:44.933Z,34.05
2022-10-31T03:00:39.967Z,33.05
2022-10-31T03:03:38.970Z,32.63
2022-10-31T03:06:32.967Z,32.30
2022-10-31T03:09:26.991Z,31.50
2022-10-31T03:12:26.996Z,38.35
2022-10-31T03:15:23.501Z,36.10
2022-10-31T03:18:15.632Z,36.95
2022-10-31T03:21:10.602Z,33.28
2022-10-31T03:24:01.320Z,34.75
2022-10-31T03:26:54.743Z,33.38
2022-10-31T03:29:45.962Z,33.80
2022-10-31T03:32:40.369Z,36.17
2022-10-31T03:35:30.993Z,35.53
2022-10-31T03:38:22.352Z,36.63
2022-10-31T03:41:16.100Z,40.30
2022-10-31T03:44:12.225Z,33.83
2022-10-31T03:47:03.581Z,33.72
2022-10-31T03:49:52.956Z,36.30
2022-10-31T03:52:48.354Z,33.15
2022-10-31T03:55:43.630Z,33.05
2022-10-31T03:58:40.369Z,31.52
2022-10-31T04:01:33.767Z,37.67
2022-10-31T04:04:24.747Z,33.33
2022-10-31T04:07:15.013Z,28.88
2022-10-31T04:10:07.229Z,30.90
2022-10-31T04:13:02.744Z,32.63
2022-10-31T04:15:58.697Z,30.38
2022-10-31T04:18:47.857Z,34.05
2022-10-31T04:21:38.473Z,32.17
2022-10-31T04:24:27.288Z,35.88
2022-10-31T04:27:15.987Z,33.47
2022-10-31T04:30:07.910Z,40.38
2022-10-31T04:32:59.602Z,33.47
2022-10-31T04:35:48.696Z,33.60
2022-10-31T04:38:37.816Z,32.78
2022-10-31T04:41:34.052Z,32.90
2022-10-31T04:44:24.848Z,33.17
2022-10-31T04:47:16.901Z,31.73
2022-10-31T04:50:07.050Z,33.65
2022-10-31T04:52:58.225Z,34.15
2022-10-31T04:55:50.982Z,32.17
2022-10-31T04:58:42.501Z,34.42
2022-10-31T05:01:32.528Z,33.10
2022-10-31T05:04:24.492Z,36.22
2022-10-31T05:07:13.208Z,33.42
2022-10-31T05:10:02.063Z,32.92
2022-10-31T05:12:54.030Z,34.45
2022-10-31T05:16:06.040Z,35.15
2022-10-31T05:19:13.306Z,34.35
2022-10-31T05:22:23.498Z,34.17
2022-10-31T05:25:12.984Z,33.72
2022-10-31T05:28:01.767Z,29.70
2022-10-31T05:30:51.431Z,33.85
2022-10-31T05:33:40.120Z,32.45
2022-10-31T05:36:47.451Z,33.25
2022-10-31T05:39:42.660Z,33.95
2022-10-31T05:42:36.719Z,29.73
2022-10-31T05:45:26.489Z,32.92
2022-10-31T05:48:20.155Z,31.17
2022-10-31T05:51:27.559Z,34.22
2022-10-31T05:54:16.368Z,36.10
2022-10-31T05:57:09.302Z,33.53
2022-10-31T05:59:58.419Z,33.72
2022-10-31T06:02:47.347Z,36.53
2022-10-31T06:05:52.261Z,39.45
2022-10-31T06:08:45.671Z,38.15
2022-10-31T06:11:37.333Z,39.17
2022-10-31T06:14:27.477Z,40.10
2022-10-31T06:17:18.116Z,44.03
2022-10-31T06:20:29.760Z,44.53
2022-10-31T06:23:23.672Z,43.53
2022-10-31T06:26:17.875Z,44.80
2022-10-31T06:29:07.224Z,51.13
2022-10-31T06:32:17.927Z,49.47
2022-10-31T06:35:08.362Z,49.13
2022-10-31T06:37:58.436Z,47.70
2022-10-31T06:41:05.185Z,50.08
2022-10-31T06:44:10.081Z,50.22
2022-10-31T06:47:30.370Z,52.88
2022-10-31T06:50:19.031Z,50.20
2022-10-31T06:55:59.560Z,49.75
2022-10-31T06:58:48.695Z,48.95
2022-10-31T07:01:39.661Z,47.78
2022-10-31T07:04:30.715Z,56.50
2022-10-31T07:07:22.305Z,46.03
2022-10-31T07:13:26.471Z,36.35
2022-10-31T07:16:23.111Z,36.72
2022-10-31T07:19:12.132Z,36.55
2022-10-31T07:22:02.248Z,36.33
2022-10-31T07:24:52.232Z,38.25
2022-10-31T07:27:59.575Z,32.58
2022-10-31T07:30:52.758Z,32.40
2022-10-31T07:33:42.930Z,32.20
2022-10-31T07:36:50.019Z,37.03
2022-10-31T07:39:40.642Z,37.95
2022-10-31T07:42:30.040Z,47.58
2022-10-31T07:45:20.487Z,42.53
2022-10-31T07:48:47.051Z,50.90
2022-10-31T07:51:58.607Z,48.63
2022-10-31T07:55:08.825Z,48.25
2022-10-31T07:58:00.142Z,49.20
2022-10-31T08:00:50.548Z,40.60
2022-10-31T08:03:50.510Z,52.22
2022-10-31T08:06:58.005Z,45.22
2022-10-31T08:09:52.476Z,44.28
2022-10-31T08:12:45.810Z,42.45
2022-10-31T08:15:39.004Z,39.63
2022-10-31T08:18:27.722Z,39.45
2022-10-31T08:21:16.497Z,42.72
2022-10-31T08:24:07.728Z,39.47
2022-10-31T08:26:56.600Z,40.83
2022-10-31T08:29:46.720Z,42.22
2022-10-31T08:32:35.745Z,42.65
2022-10-31T08:35:53.614Z,40.35
2022-10-31T08:39:10.751Z,36.83
2022-10-31T08:42:01.246Z,35.65
2022-10-31T08:44:52.134Z,33.33
2022-10-31T08:47:43.746Z,30.88
2022-10-31T08:50:35.137Z,37.63
2022-10-31T08:53:24.247Z,36.78
2022-10-31T08:56:28.927Z,37.40
2022-10-31T08:59:17.776Z,37.25
2022-10-31T09:02:26.975Z,36.10
2022-10-31T09:05:21.200Z,37.40
2022-10-31T09:08:15.990Z,32.83
2022-10-31T09:11:07.598Z,31.00
2022-10-31T09:14:15.007Z,34.00
2022-10-31T09:17:34.189Z,31.88
2022-10-31T09:20:45.369Z,33.92
2022-10-31T09:23:34.544Z,32.08
2022-10-31T09:26:23.524Z,34.15
2022-10-31T09:29:20.952Z,30.52
2022-10-31T09:32:16.183Z,31.33
2022-10-31T09:38:00.755Z,28.75
2022-10-31T09:40:56.858Z,32.28
2022-10-31T09:43:52.729Z,33.83
2022-10-31T09:46:52.420Z,27.30
2022-10-31T09:49:58.407Z,30.38
2022-10-31T09:52:59.559Z,35.38
2022-10-31T09:55:51.236Z,34.65
2022-10-31T09:58:45.686Z,35.17
2022-10-31T10:01:42.583Z,38.42
2022-10-31T10:04:40.516Z,34.83
2022-10-31T10:07:51.962Z,40.28
2022-10-31T10:11:09.400Z,43.08
2022-10-31T10:14:32.999Z,42.65
2022-10-31T10:17:33.526Z,41.97
2022-10-31T10:20:32.722Z,43.65
2022-10-31T10:23:37.482Z,46.30
2022-10-31T10:29:35.586Z,43.95
2022-10-31T10:32:29.519Z,43.83
2022-10-31T10:35:25.682Z,43.25
2022-10-31T10:38:22.398Z,42.00
2022-10-31T10:41:18.370Z,42.40
2022-10-31T10:44:10.908Z,37.17
2022-10-31T10:47:20.233Z,36.95
2022-10-31T10:50:15.132Z,37.88
2022-10-31T10:53:22.210Z,34.78
2022-10-31T10:56:19.388Z,33.97
2022-10-31T10:59:13.037Z,30.65
2022-10-31T11:02:01.927Z,35.10
2022-10-31T11:04:54.005Z,30.52
2022-10-31T11:07:42.742Z,33.40
2022-10-31T11:10:32.146Z,31.90
2022-10-31T11:13:26.261Z,34.22
2022-10-31T11:16:17.177Z,30.25
2022-10-31T11:19:16.968Z,32.15
2022-10-31T11:22:09.783Z,26.58
2022-10-31T11:24:58.627Z,27.05
2022-10-31T11:27:47.611Z,26.98
2022-10-31T11:30:51.070Z,26.88
2022-10-31T11:33:42.959Z,26.35
2022-10-31T11:36:34.579Z,24.42
2022-10-31T11:39:26.248Z,27.20
2022-10-31T11:42:15.394Z,27.10
2022-10-31T11:45:08.619Z,28.27
2022-10-31T11:48:02.099Z,23.20
2022-10-31T11:50:53.784Z,26.98
2022-10-31T11:53:56.926Z,28.17
2022-10-31T11:56:48.870Z,29.10
2022-10-31T11:59:41.123Z,26.15
2022-10-31T12:02:30.284Z,29.10
2022-10-31T12:05:26.796Z,32.55
2022-10-31T12:08:16.381Z,29.88
2022-10-31T12:11:12.370Z,28.27
2022-10-31T12:14:11.000Z,32.65
2022-10-31T12:17:05.010Z,32.72
2022-10-31T12:20:04.734Z,33.30
2022-10-31T12:23:05.385Z,33.17
2022-10-31T12:25:58.956Z,31.60
2022-10-31T12:29:04.244Z,31.75
2022-10-31T12:32:04.944Z,36.17
2022-10-31T12:35:17.460Z,32.13
2022-10-31T12:38:30.593Z,30.83
2022-10-31T12:41:30.377Z,35.78
2022-10-31T12:44:47.411Z,39.85
2022-10-31T12:47:56.696Z,40.47
2022-10-31T12:50:58.441Z,39.25
2022-10-31T12:54:04.264Z,35.83
2022-10-31T12:57:01.626Z,41.42
2022-10-31T12:59:54.191Z,38.35
2022-10-31T13:02:48.756Z,42.60
2022-10-31T13:05:43.066Z,38.13
2022-10-31T13:08:37.378Z,42.88
2022-10-31T13:11:29.824Z,41.75
2022-10-31T13:14:26.345Z,41.50
2022-10-31T13:17:24.096Z,41.25
2022-10-31T13:20:23.991Z,42.88
2022-10-31T13:23:44.624Z,42.17
2022-10-31T13:26:40.230Z,41.80
2022-10-31T13:29:34.222Z,42.28
2022-10-31T13:32:22.963Z,42.17
2022-10-31T13:35:18.591Z,39.97
2022-10-31T13:38:24.534Z,45.55
2022-10-31T13:41:24.018Z,41.45
2022-10-31T13:44:17.953Z,43.17
2022-10-31T13:47:22.584Z,47.83
2022-10-31T13:50:23.209Z,48.17
2022-10-31T13:53:15.066Z,47.67
2022-10-31T13:56:24.472Z,44.25
2022-10-31T13:59:26.711Z,42.70
2022-10-31T14:02:18.857Z,41.67
2022-10-31T14:05:22.336Z,46.17
2022-10-31T14:08:24.215Z,46.38
2022-10-31T14:11:34.375Z,48.45
2022-10-31T14:14:35.598Z,43.70
2022-10-31T14:17:33.380Z,42.70
2022-10-31T14:20:36.358Z,43.95
2022-10-31T14:23:37.000Z,49.83
2022-10-31T14:26:53.111Z,48.90
2022-10-31T14:29:47.881Z,45.80
2022-10-31T14:32:39.228Z,49.22
2022-10-31T14:35:36.486Z,46.25
2022-10-31T14:38:38.903Z,49.35
2022-10-31T14:41:58.309Z,49.78
2022-10-31T14:45:03.984Z,47.42
2022-10-31T14:48:08.035Z,45.70
2022-10-31T14:50:58.920Z,44.00
2022-10-31T14:53:51.449Z,40.95
2022-10-31T14:56:53.308Z,47.38
2022-10-31T14:59:50.470Z,50.33
2022-10-31T15:02:48.921Z,58.25
2022-10-31T15:05:44.685Z,51.08
2022-10-31T15:08:39.909Z,56.08
2022-10-31T15:11:29.566Z,59.58
2022-10-31T15:14:25.910Z,60.13
2022-10-31T15:17:14.921Z,59.88
2022-10-31T15:20:06.810Z,55.08
2022-10-31T15:22:59.279Z,62.38
2022-10-31T15:25:48.794Z,58.15
2022-10-31T15:28:37.455Z,58.90
2022-10-31T15:31:26.572Z,60.38
2022-10-31T15:34:21.785Z,59.72
2022-10-31T15:37:14.793Z,60.53
2022-10-31T15:40:09.836Z,56.92
2022-10-31T15:43:01.042Z,64.82
2022-10-31T15:45:49.829Z,67.00
2022-10-31T15:48:39.483Z,62.50
2022-10-31T15:51:30.508Z,62.45
2022-10-31T15:54:20.703Z,66.20
2022-10-31T15:57:12.983Z,63.38
2022-10-31T16:00:01.813Z,66.72
2022-10-31T16:02:50.569Z,65.65
2022-10-31T16:05:41.754Z,72.32
2022-10-31T16:08:38.265Z,71.65
2022-10-31T16:11:35.263Z,66.82
2022-10-31T16:14:28.380Z,69.63
2022-10-31T16:17:19.243Z,70.07
2022-10-31T16:20:09.178Z,64.78
2022-10-31T16:23:00.008Z,71.40
2022-10-31T16:25:50.685Z,66.53
2022-10-31T16:28:42.295Z,67.72
2022-10-31T16:31:38.105Z,69.13
2022-10-31T16:34:27.254Z,67.57
2022-10-31T16:37:16.231Z,66.13
2022-10-31T16:40:05.725Z,70.85
2022-10-31T16:42:54.984Z,67.38
2022-10-31T16:45:48.358Z,65.45
2022-10-31T16:48:37.108Z,74.70
2022-10-31T16:51:26.042Z,79.32
2022-10-31T16:54:14.777Z,74.13
2022-10-31T16:57:06.170Z,80.63
2022-10-31T16:59:55.806Z,75.30
2022-10-31T17:02:47.315Z,81.60
2022-10-31T17:05:37.009Z,78.75
2022-10-31T17:08:26.306Z,89.05
2022-10-31T17:11:18.844Z,78.53
2022-10-31T17:14:07.576Z,84.50
2022-10-31T17:16:59.001Z,90.88
2022-10-31T17:19:49.049Z,88.32
2022-10-31T17:25:33.036Z,93.53
2022-10-31T17:28:21.738Z,94.43
2022-10-31T17:31:21.555Z,87.85
2022-10-31T17:34:10.642Z,95.13
2022-10-31T17:37:01.109Z,95.60
2022-10-31T17:39:49.828Z,91.93
2022-10-31T17:42:38.446Z,88.80
2022-10-31T17:45:28.319Z,91.68
2022-10-31T17:48:17.052Z,104.93
2022-10-31T17:51:07.652Z,100.90
2022-10-31T17:53:59.043Z,86.13
2022-10-31T17:56:47.681Z,88.05
2022-10-31T17:59:36.436Z,94.65
2022-10-31T18:02:25.391Z,83.45
2022-10-31T18:05:14.547Z,98.13
2022-10-31T18:08:04.348Z,95.78
2022-10-31T18:10:55.250Z,87.95
2022-10-31T18:13:44.030Z,83.35
2022-10-31T18:16:32.732Z,97.05
2022-10-31T18:19:21.407Z,75.25
2022-10-31T18:22:10.066Z,78.10
2022-10-31T18:25:02.001Z,77.18
2022-10-31T18:27:52.534Z,81.85
2022-10-31T18:30:42.372Z,77.90
2022-10-31T18:33:31.375Z,81.70
2022-10-31T18:36:20.060Z,76.07
2022-10-31T18:39:09.039Z,69.95
2022-10-31T18:41:58.266Z,64.50
2022-10-31T18:44:48.393Z,64.10
2022-10-31T18:47:37.095Z,61.15
2022-10-31T18:50:26.166Z,64.72
2022-10-31T18:53:14.861Z,64.20
2022-10-31T18:56:07.920Z,66.25
2022-10-31T18:58:56.651Z,59.78
2022-10-31T19:01:46.926Z,68.60
2022-10-31T19:04:35.623Z,72.22
2022-10-31T19:07:24.906Z,80.22
2022-10-31T19:10:13.755Z,80.05
2022-10-31T19:13:03.064Z,80.07
2022-10-31T19:15:51.912Z,83.28
2022-10-31T19:18:43.019Z,91.00
2022-10-31T19:21:32.568Z,84.05
2022-10-31T19:24:21.356Z,82.85
2022-10-31T19:27:11.154Z,83.47
2022-10-31T19:30:01.274Z,75.10
2022-10-31T19:32:50.025Z,79.47
2022-10-31T19:35:40.098Z,81.30
2022-10-31T19:38:29.810Z,88.35
2022-10-31T19:41:20.450Z,84.70
2022-10-31T19:44:11.914Z,85.78
2022-10-31T19:47:03.708Z,76.82
2022-10-31T19:49:52.492Z,76.95
2022-10-31T19:52:42.772Z,74.13
2022-10-31T19:55:31.600Z,67.90
2022-10-31T19:58:20.308Z,71.18
2022-10-31T20:01:10.160Z,74.32
2022-10-31T20:03:59.284Z,69.60
2022-10-31T20:06:48.348Z,66.95
2022-10-31T20:09:38.713Z,66.90
2022-10-31T20:12:27.416Z,70.47
2022-10-31T20:15:16.436Z,67.90
2022-10-31T20:18:05.284Z,63.42
2022-10-31T20:20:54.219Z,64.32
2022-10-31T20:23:43.553Z,66.22
2022-10-31T20:26:34.888Z,74.55
2022-10-31T20:29:23.638Z,59.92
2022-10-31T20:32:12.320Z,58.05
2022-10-31T20:35:00.984Z,64.55
2022-10-31T20:37:49.753Z,69.47
2022-10-31T20:40:38.779Z,65.97
2022-10-31T20:43:29.393Z,76.72
2022-10-31T20:46:19.775Z,78.13
2022-10-31T20:49:08.508Z,60.45
2022-10-31T20:51:57.372Z,64.95
2022-10-31T20:54:46.080Z,63.28
2022-10-31T20:57:34.804Z,65.38
2022-10-31T21:00:24.955Z,69.72
2022-10-31T21:03:13.647Z,65.00
2022-10-31T21:06:03.942Z,70.75
2022-10-31T21:08:54.037Z,65.80
2022-10-31T21:11:42.994Z,62.88
2022-10-31T21:14:31.677Z,67.90
2022-10-31T21:17:21.675Z,72.90
2022-10-31T21:20:11.351Z,74.25
2022-10-31T21:23:00.383Z,76.45
2022-10-31T21:25:49.291Z,72.00
2022-10-31T21:28:38.223Z,68.88
2022-10-31T21:31:28.399Z,65.75
2022-10-31T21:34:18.660Z,66.78
2022-10-31T21:37:07.557Z,60.53
2022-10-31T21:39:56.387Z,67.90
2022-10-31T21:42:45.010Z,69.55
2022-10-31T21:45:33.599Z,63.42
2022-10-31T21:48:22.400Z,60.40
2022-10-31T21:51:14.517Z,57.70
2022-10-31T21:54:21.014Z,65.25
2022-10-31T21:57:09.784Z,55.40
2022-10-31T21:59:58.878Z,64.90
2022-10-31T22:02:47.440Z,61.88
2022-10-31T22:05:36.204Z,62.38
2022-10-31T22:08:26.364Z,63.67
2022-10-31T22:11:16.577Z,67.32
2022-10-31T22:14:05.608Z,66.90
2022-10-31T22:16:54.328Z,64.47
2022-10-31T22:19:43.264Z,64.82
2022-10-31T22:22:31.940Z,71.40
2022-10-31T22:25:22.006Z,66.13
2022-10-31T22:28:10.738Z,68.28
2022-10-31T22:30:59.634Z,60.95
2022-10-31T22:33:49.039Z,59.53
2022-10-31T22:36:38.940Z,57.53
2022-10-31T22:39:27.585Z,59.25
2022-10-31T22:42:17.618Z,55.67
2022-10-31T22:45:07.059Z,54.25
2022-10-31T22:47:55.790Z,55.80
2022-10-31T22:50:44.406Z,56.97
2022-10-31T22:53:33.158Z,61.63
2022-10-31T22:56:24.474Z,57.20
2022-10-31T22:59:16.510Z,56.83
2022-10-31T23:02:08.506Z,56.13
2022-10-31T23:04:58.786Z,51.97
2022-10-31T23:07:47.651Z,53.92
2022-10-31T23:10:41.345Z,49.40
2022-10-31T23:13:47.624Z,53.60
2022-10-31T23:16:39.501Z,51.55
2022-10-31T23:19:29.837Z,49.00
2022-10-31T23:22:18.531Z,55.75
2022-10-31T23:25:07.659Z,54.10
2022-10-31T23:27:55.371Z,50.28
2022-10-31T23:30:46.762Z,58.88
2022-10-31T23:33:36.873Z,49.78
2022-10-31T23:36:25.782Z,49.75
2022-10-31T23:39:14.399Z,46.13
2022-10-31T23:42:04.499Z,52.55
2022-10-31T23:44:53.107Z,53.78
2022-10-31T23:47:43.445Z,50.22
2022-10-31T23:50:33.575Z,50.45
2022-10-31T23:53:22.341Z,47.63
2022-10-31T23:56:10.984Z,52.75
2022-10-31T23:58:59.712Z,46.00
